sensor_id;sensor_type;location;lat;lon;timestamp;pressure;altitude;pressure_sealevel;temperature;humidity
9899;BME280;4988;49.238;6.698;2023-02-13T00:01:26;101055.19;;;4.38;100.00
9899;BME280;4988;49.238;6.698;2023-02-13T00:03:52;101050.84;;;4.43;100.00
9899;BME280;4988;49.238;6.698;2023-02-13T00:06:17;101055.25;;;4.41;100.00
9899;BME280;4988;49.238;6.698;2023-02-13T00:08:42;101051.69;;;4.36;100.00
9899;BME280;4988;49.238;6.698;2023-02-13T00:11:07;101044.66;;;4.35;100.00
9899;BME280;4988;49.238;6.698;2023-02-13T00:13:34;101045.53;;;4.37;100.00
9899;BME280;4988;49.238;6.698;2023-02-13T00:16:03;101046.38;;;4.34;100.00
9899;BME280;4988;49.238;6.698;2023-02-13T00:18:29;101055.16;;;4.33;100.00
9899;BME280;4988;49.238;6.698;2023-02-13T00:21:00;101052.50;;;4.29;100.00
9899;BME280;4988;49.238;6.698;2023-02-13T00:23:25;101051.56;;;4.27;100.00
9899;BME280;4988;49.238;6.698;2023-02-13T00:25:51;101055.06;;;4.26;100.00
9899;BME280;4988;49.238;6.698;2023-02-13T00:28:16;101058.63;;;4.31;100.00
9899;BME280;4988;49.238;6.698;2023-02-13T00:30:42;101058.56;;;4.25;100.00
9899;BME280;4988;49.238;6.698;2023-02-13T00:33:07;101060.31;;;4.23;100.00
9899;BME280;4988;49.238;6.698;2023-02-13T00:35:32;101059.41;;;4.21;100.00
9899;BME280;4988;49.238;6.698;2023-02-13T00:37:57;101055.88;;;4.18;100.00
9899;BME280;4988;49.238;6.698;2023-02-13T00:40:23;101062.84;;;4.15;100.00
9899;BME280;4988;49.238;6.698;2023-02-13T00:42:48;101057.56;;;4.10;100.00
9899;BME280;4988;49.238;6.698;2023-02-13T00:45:14;101058.38;;;4.06;100.00
9899;BME280;4988;49.238;6.698;2023-02-13T00:47:39;101060.97;;;4.03;100.00
9899;BME280;4988;49.238;6.698;2023-02-13T00:50:05;101057.44;;;3.99;100.00
9899;BME280;4988;49.238;6.698;2023-02-13T00:52:30;101055.66;;;3.98;100.00
9899;BME280;4988;49.238;6.698;2023-02-13T00:54:56;101059.94;;;3.92;100.00
9899;BME280;4988;49.238;6.698;2023-02-13T00:57:21;101052.88;;;3.88;100.00
9899;BME280;4988;49.238;6.698;2023-02-13T00:59:46;101052.94;;;3.92;100.00
9899;BME280;4988;49.238;6.698;2023-02-13T01:02:11;101049.47;;;3.95;100.00
9899;BME280;4988;49.238;6.698;2023-02-13T01:04:37;101052.94;;;3.94;100.00
9899;BME280;4988;49.238;6.698;2023-02-13T01:07:02;101058.06;;;3.81;100.00
9899;BME280;4988;49.238;6.698;2023-02-13T01:09:28;101051.03;;;3.80;100.00
9899;BME280;4988;49.238;6.698;2023-02-13T01:11:53;101048.38;;;3.79;100.00
9899;BME280;4988;49.238;6.698;2023-02-13T01:14:18;101053.72;;;3.83;100.00
9899;BME280;4988;49.238;6.698;2023-02-13T01:16:44;101049.41;;;3.92;100.00
9899;BME280;4988;49.238;6.698;2023-02-13T01:19:09;101053.78;;;3.90;100.00
9899;BME280;4988;49.238;6.698;2023-02-13T01:21:34;101046.81;;;3.95;100.00
9899;BME280;4988;49.238;6.698;2023-02-13T01:24:03;101051.31;;;4.02;100.00
9899;BME280;4988;49.238;6.698;2023-02-13T01:26:28;101055.66;;;4.01;100.00
9899;BME280;4988;49.238;6.698;2023-02-13T01:28:54;101049.59;;;4.04;100.00
9899;BME280;4988;49.238;6.698;2023-02-13T01:31:20;101052.16;;;4.01;100.00
9899;BME280;4988;49.238;6.698;2023-02-13T01:33:46;101045.03;;;3.92;100.00
9899;BME280;4988;49.238;6.698;2023-02-13T01:36:12;101044.97;;;3.89;100.00
9899;BME280;4988;49.238;6.698;2023-02-13T01:38:38;101047.63;;;3.89;100.00
9899;BME280;4988;49.238;6.698;2023-02-13T01:41:04;101043.06;;;3.76;100.00
9899;BME280;4988;49.238;6.698;2023-02-13T01:46:20;101042.09;;;3.66;100.00
9899;BME280;4988;49.238;6.698;2023-02-13T01:48:47;101040.31;;;3.65;100.00
9899;BME280;4988;49.238;6.698;2023-02-13T01:51:18;101042.97;;;3.66;100.00
9899;BME280;4988;49.238;6.698;2023-02-13T01:53:48;101036.84;;;3.69;100.00
9899;BME280;4988;49.238;6.698;2023-02-13T01:56:32;101038.53;;;3.64;100.00
9899;BME280;4988;49.238;6.698;2023-02-13T01:59:09;101040.19;;;3.57;100.00
9899;BME280;4988;49.238;6.698;2023-02-13T02:01:36;101044.59;;;3.57;100.00
9899;BME280;4988;49.238;6.698;2023-02-13T02:04:09;101038.41;;;3.54;100.00
9899;BME280;4988;49.238;6.698;2023-02-13T02:06:45;101037.47;;;3.49;100.00
9899;BME280;4988;49.238;6.698;2023-02-13T02:09:15;101040.94;;;3.47;100.00
9899;BME280;4988;49.238;6.698;2023-02-13T02:11:57;101043.44;;;3.37;100.00
9899;BME280;4988;49.238;6.698;2023-02-13T02:14:25;101039.00;;;3.35;100.00
9899;BME280;4988;49.238;6.698;2023-02-13T02:16:51;101040.75;;;3.33;100.00
9899;BME280;4988;49.238;6.698;2023-02-13T02:36:02;101026.50;;;3.18;100.00
9899;BME280;4988;49.238;6.698;2023-02-13T02:41:23;101021.31;;;3.23;100.00
9899;BME280;4988;49.238;6.698;2023-02-13T02:44:30;101020.47;;;3.27;100.00
9899;BME280;4988;49.238;6.698;2023-02-13T02:49:56;101022.28;;;3.31;100.00
9899;BME280;4988;49.238;6.698;2023-02-13T02:52:35;101020.56;;;3.32;100.00
9899;BME280;4988;49.238;6.698;2023-02-13T02:55:17;101023.13;;;3.27;100.00
9899;BME280;4988;49.238;6.698;2023-02-13T02:57:48;101025.66;;;3.19;100.00
9899;BME280;4988;49.238;6.698;2023-02-13T03:00:36;101040.16;;;2.94;100.00
9899;BME280;4988;49.238;6.698;2023-02-13T03:03:24;101036.66;;;2.41;100.00
9899;BME280;4988;49.238;6.698;2023-02-13T03:06:19;101037.59;;;1.99;100.00
9899;BME280;4988;49.238;6.698;2023-02-13T03:08:53;101030.22;;;1.80;100.00
9899;BME280;4988;49.238;6.698;2023-02-13T03:11:40;101029.19;;;1.71;100.00
9899;BME280;4988;49.238;6.698;2023-02-13T03:14:27;101039.81;;;1.77;100.00
9899;BME280;4988;49.238;6.698;2023-02-13T03:16:53;101042.63;;;1.87;100.00
9899;BME280;4988;49.238;6.698;2023-02-13T03:19:50;101047.13;;;1.92;100.00
9899;BME280;4988;49.238;6.698;2023-02-13T03:22:55;101042.97;;;2.04;100.00
9899;BME280;4988;49.238;6.698;2023-02-13T03:31:12;101045.56;;;2.02;100.00
9899;BME280;4988;49.238;6.698;2023-02-13T03:42:04;101049.88;;;1.99;100.00
9899;BME280;4988;49.238;6.698;2023-02-13T03:44:41;101045.44;;;1.96;100.00
9899;BME280;4988;49.238;6.698;2023-02-13T03:47:09;101049.75;;;1.92;100.00
9899;BME280;4988;49.238;6.698;2023-02-13T03:49:46;101044.38;;;1.86;100.00
9899;BME280;4988;49.238;6.698;2023-02-13T03:52:50;101041.78;;;1.89;100.00
9899;BME280;4988;49.238;6.698;2023-02-13T03:55:18;101046.28;;;1.93;100.00
9899;BME280;4988;49.238;6.698;2023-02-13T03:58:11;101041.97;;;1.97;100.00
9899;BME280;4988;49.238;6.698;2023-02-13T04:00:59;101045.38;;;1.95;100.00
9899;BME280;4988;49.238;6.698;2023-02-13T04:03:44;101045.38;;;1.95;100.00
9899;BME280;4988;49.238;6.698;2023-02-13T04:06:26;101055.13;;;1.99;100.00
9899;BME280;4988;49.238;6.698;2023-02-13T04:08:54;101057.72;;;1.97;100.00
9899;BME280;4988;49.238;6.698;2023-02-13T04:11:52;101056.00;;;2.01;100.00
9899;BME280;4988;49.238;6.698;2023-02-13T04:15:45;101056.19;;;2.08;100.00
9899;BME280;4988;49.238;6.698;2023-02-13T04:17:42;101051.63;;;2.00;100.00
9899;BME280;4988;49.238;6.698;2023-02-13T04:20:10;101048.97;;;1.98;100.00
9899;BME280;4988;49.238;6.698;2023-02-13T04:22:41;101051.63;;;2.00;100.00
9899;BME280;4988;49.238;6.698;2023-02-13T04:25:06;101045.25;;;1.88;100.00
9899;BME280;4988;49.238;6.698;2023-02-13T04:27:32;101059.16;;;1.81;100.00
9899;BME280;4988;49.238;6.698;2023-02-13T04:29:57;101056.06;;;1.59;100.00
9899;BME280;4988;49.238;6.698;2023-02-13T04:32:22;101062.59;;;1.39;100.00
9899;BME280;4988;49.238;6.698;2023-02-13T04:34:48;101065.59;;;1.16;100.00
9899;BME280;4988;49.238;6.698;2023-02-13T04:37:13;101059.13;;;1.02;100.00
9899;BME280;4988;49.238;6.698;2023-02-13T04:39:38;101061.44;;;0.89;100.00
9899;BME280;4988;49.238;6.698;2023-02-13T04:42:04;101060.28;;;0.78;100.00
9899;BME280;4988;49.238;6.698;2023-02-13T04:44:29;101061.78;;;0.68;100.00
9899;BME280;4988;49.238;6.698;2023-02-13T04:46:54;101067.16;;;0.73;100.00
9899;BME280;4988;49.238;6.698;2023-02-13T04:49:20;101060.19;;;0.75;100.00
9899;BME280;4988;49.238;6.698;2023-02-13T04:51:45;101059.53;;;0.84;100.00
9899;BME280;4988;49.238;6.698;2023-02-13T04:54:10;101055.38;;;0.92;100.00
9899;BME280;4988;49.238;6.698;2023-02-13T04:56:35;101058.03;;;0.93;100.00
9899;BME280;4988;49.238;6.698;2023-02-13T04:59:01;101057.31;;;0.99;100.00
9899;BME280;4988;49.238;6.698;2023-02-13T05:01:26;101058.19;;;1.00;100.00
9899;BME280;4988;49.238;6.698;2023-02-13T05:03:51;101060.06;;;1.04;100.00
9899;BME280;4988;49.238;6.698;2023-02-13T05:06:17;101054.00;;;1.06;100.00
9899;BME280;4988;49.238;6.698;2023-02-13T05:08:42;101051.41;;;1.08;100.00
9899;BME280;4988;49.238;6.698;2023-02-13T05:11:08;101050.59;;;1.12;100.00
9899;BME280;4988;49.238;6.698;2023-02-13T05:13:33;101048.94;;;1.16;100.00
9899;BME280;4988;49.238;6.698;2023-02-13T05:15:58;101051.72;;;1.22;100.00
9899;BME280;4988;49.238;6.698;2023-02-13T05:18:24;101060.47;;;1.22;100.00
9899;BME280;4988;49.238;6.698;2023-02-13T05:20:49;101051.00;;;1.29;100.00
9899;BME280;4988;49.238;6.698;2023-02-13T05:23:34;101048.63;;;1.40;100.00
9899;BME280;4988;49.238;6.698;2023-02-13T05:26:00;101047.94;;;1.49;100.00
9899;BME280;4988;49.238;6.698;2023-02-13T05:28:25;101048.03;;;1.53;100.00
9899;BME280;4988;49.238;6.698;2023-02-13T05:31:09;101049.84;;;1.56;100.00
9899;BME280;4988;49.238;6.698;2023-02-13T05:33:35;101051.66;;;1.58;100.00
9899;BME280;4988;49.238;6.698;2023-02-13T05:36:00;101055.22;;;1.60;100.00
9899;BME280;4988;49.238;6.698;2023-02-13T05:38:25;101052.59;;;1.60;100.00
9899;BME280;4988;49.238;6.698;2023-02-13T05:40:51;101048.28;;;1.64;100.00
9899;BME280;4988;49.238;6.698;2023-02-13T05:43:16;101055.97;;;1.56;100.00
9899;BME280;4988;49.238;6.698;2023-02-13T05:45:41;101052.34;;;1.50;100.00
9899;BME280;4988;49.238;6.698;2023-02-13T05:48:07;101050.31;;;1.38;100.00
9899;BME280;4988;49.238;6.698;2023-02-13T05:50:32;101057.22;;;1.33;100.00
9899;BME280;4988;49.238;6.698;2023-02-13T05:52:57;101053.47;;;1.21;100.00
9899;BME280;4988;49.238;6.698;2023-02-13T05:55:23;101051.47;;;1.11;100.00
9899;BME280;4988;49.238;6.698;2023-02-13T05:57:48;101050.47;;;1.06;100.00
9899;BME280;4988;49.238;6.698;2023-02-13T06:00:14;101056.72;;;1.11;100.00
9899;BME280;4988;49.238;6.698;2023-02-13T06:02:39;101050.72;;;1.17;100.00
9899;BME280;4988;49.238;6.698;2023-02-13T06:05:05;101059.50;;;1.17;100.00
9899;BME280;4988;49.238;6.698;2023-02-13T06:07:30;101054.28;;;1.19;100.00
9899;BME280;4988;49.238;6.698;2023-02-13T06:09:55;101060.50;;;1.24;100.00
9899;BME280;4988;49.238;6.698;2023-02-13T06:12:35;101057.38;;;1.02;100.00
9899;BME280;4988;49.238;6.698;2023-02-13T06:15:02;101066.06;;;0.64;100.00
9899;BME280;4988;49.238;6.698;2023-02-13T06:17:27;101064.59;;;0.41;100.00
9899;BME280;4988;49.238;6.698;2023-02-13T06:19:53;101067.94;;;0.35;100.00
9899;BME280;4988;49.238;6.698;2023-02-13T06:22:18;101068.03;;;0.38;100.00
9899;BME280;4988;49.238;6.698;2023-02-13T06:24:43;101067.38;;;0.47;100.00
9899;BME280;4988;49.238;6.698;2023-02-13T06:27:08;101068.41;;;0.54;100.00
9899;BME280;4988;49.238;6.698;2023-02-13T06:29:34;101063.50;;;0.68;100.00
9899;BME280;4988;49.238;6.698;2023-02-13T06:31:59;101059.09;;;0.65;100.00
9899;BME280;4988;49.238;6.698;2023-02-13T06:34:24;101070.91;;;0.83;100.00
9899;BME280;4988;49.238;6.698;2023-02-13T06:36:50;101064.19;;;0.94;100.00
9899;BME280;4988;49.238;6.698;2023-02-13T06:39:16;101072.16;;;0.99;100.00
9899;BME280;4988;49.238;6.698;2023-02-13T06:41:42;101075.00;;;1.08;100.00
9899;BME280;4988;49.238;6.698;2023-02-13T06:44:07;101080.69;;;1.26;100.00
9899;BME280;4988;49.238;6.698;2023-02-13T06:46:32;101071.38;;;1.39;100.00
9899;BME280;4988;49.238;6.698;2023-02-13T06:48:58;101073.22;;;1.45;100.00
9899;BME280;4988;49.238;6.698;2023-02-13T06:51:23;101076.84;;;1.50;100.00
9899;BME280;4988;49.238;6.698;2023-02-13T06:53:48;101071.81;;;1.59;100.00
9899;BME280;4988;49.238;6.698;2023-02-13T06:56:14;101069.31;;;1.66;100.00
9899;BME280;4988;49.238;6.698;2023-02-13T06:58:39;101066.06;;;1.77;100.00
9899;BME280;4988;49.238;6.698;2023-02-13T07:01:05;101064.31;;;1.78;100.00
9899;BME280;4988;49.238;6.698;2023-02-13T07:03:30;101069.69;;;1.83;100.00
9899;BME280;4988;49.238;6.698;2023-02-13T07:05:55;101072.28;;;1.81;100.00
9899;BME280;4988;49.238;6.698;2023-02-13T07:08:21;101075.88;;;1.86;100.00
9899;BME280;4988;49.238;6.698;2023-02-13T07:10:46;101078.56;;;1.89;100.00
9899;BME280;4988;49.238;6.698;2023-02-13T07:13:11;101075.19;;;1.97;100.00
9899;BME280;4988;49.238;6.698;2023-02-13T07:15:37;101076.91;;;1.95;100.00
9899;BME280;4988;49.238;6.698;2023-02-13T07:18:03;101084.00;;;1.97;100.00
9899;BME280;4988;49.238;6.698;2023-02-13T07:20:29;101074.41;;;2.01;100.00
9899;BME280;4988;49.238;6.698;2023-02-13T07:22:58;101075.28;;;2.00;100.00
9899;BME280;4988;49.238;6.698;2023-02-13T07:25:24;101081.50;;;2.05;100.00
9899;BME280;4988;49.238;6.698;2023-02-13T07:27:49;101080.72;;;2.11;100.00
9899;BME280;4988;49.238;6.698;2023-02-13T07:30:15;101083.34;;;2.11;100.00
9899;BME280;4988;49.238;6.698;2023-02-13T07:32:40;101085.19;;;2.15;100.00
9899;BME280;4988;49.238;6.698;2023-02-13T07:35:06;101089.56;;;2.14;100.00
9899;BME280;4988;49.238;6.698;2023-02-13T07:37:31;101086.06;;;2.14;100.00
9899;BME280;4988;49.238;6.698;2023-02-13T07:39:56;101096.69;;;2.20;100.00
9899;BME280;4988;49.238;6.698;2023-02-13T07:42:22;101100.25;;;2.23;100.00
9899;BME280;4988;49.238;6.698;2023-02-13T07:44:47;101099.53;;;2.31;100.00
9899;BME280;4988;49.238;6.698;2023-02-13T07:47:12;101099.53;;;2.31;100.00
9899;BME280;4988;49.238;6.698;2023-02-13T07:49:38;101102.19;;;2.32;100.00
9899;BME280;4988;49.238;6.698;2023-02-13T07:52:04;101101.31;;;2.32;100.00
9899;BME280;4988;49.238;6.698;2023-02-13T07:54:29;101101.34;;;2.35;100.00
9899;BME280;4988;49.238;6.698;2023-02-13T07:56:54;101101.44;;;2.39;100.00
9899;BME280;4988;49.238;6.698;2023-02-13T07:59:20;101105.84;;;2.40;100.00
9899;BME280;4988;49.238;6.698;2023-02-13T08:01:45;101105.91;;;2.45;100.00
9899;BME280;4988;49.238;6.698;2023-02-13T08:04:10;101107.75;;;2.48;100.00
9899;BME280;4988;49.238;6.698;2023-02-13T08:06:38;101099.91;;;2.51;100.00
9899;BME280;4988;49.238;6.698;2023-02-13T08:09:04;101108.03;;;2.65;100.00
9899;BME280;4988;49.238;6.698;2023-02-13T08:11:48;101095.94;;;2.74;100.00
9899;BME280;4988;49.238;6.698;2023-02-13T08:14:25;101096.97;;;2.84;100.00
9899;BME280;4988;49.238;6.698;2023-02-13T08:16:51;101094.50;;;2.92;100.00
9899;BME280;4988;49.238;6.698;2023-02-13T08:19:17;101099.88;;;2.98;100.00
9899;BME280;4988;49.238;6.698;2023-02-13T08:21:43;101099.22;;;3.13;100.00
9899;BME280;4988;49.238;6.698;2023-02-13T08:24:09;101094.91;;;3.17;100.00
9899;BME280;4988;49.238;6.698;2023-02-13T08:26:34;101097.66;;;3.25;100.00
9899;BME280;4988;49.238;6.698;2023-02-13T08:29:00;101100.38;;;3.31;100.00
9899;BME280;4988;49.238;6.698;2023-02-13T08:31:25;101092.63;;;3.40;100.00
9899;BME280;4988;49.238;6.698;2023-02-13T08:33:51;101101.50;;;3.48;100.00
9899;BME280;4988;49.238;6.698;2023-02-13T08:36:16;101094.63;;;3.57;100.00
9899;BME280;4988;49.238;6.698;2023-02-13T08:38:43;101092.94;;;3.62;100.00
9899;BME280;4988;49.238;6.698;2023-02-13T08:41:08;101093.00;;;3.68;100.00
9899;BME280;4988;49.238;6.698;2023-02-13T08:43:34;101096.50;;;3.67;100.00
9899;BME280;4988;49.238;6.698;2023-02-13T08:45:59;101095.75;;;3.76;100.00
9899;BME280;4988;49.238;6.698;2023-02-13T08:48:26;101089.69;;;3.81;100.00
9899;BME280;4988;49.238;6.698;2023-02-13T08:50:51;101096.81;;;3.92;100.00
9899;BME280;4988;49.238;6.698;2023-02-13T08:53:17;101084.66;;;4.01;100.00
9899;BME280;4988;49.238;6.698;2023-02-13T08:55:42;101084.72;;;4.05;100.00
9899;BME280;4988;49.238;6.698;2023-02-13T08:58:07;101093.63;;;4.14;100.00
9899;BME280;4988;49.238;6.698;2023-02-13T09:00:32;101087.53;;;4.20;100.00
9899;BME280;4988;49.238;6.698;2023-02-13T09:03:02;101088.44;;;4.24;100.00
9899;BME280;4988;49.238;6.698;2023-02-13T09:05:29;101091.22;;;4.36;100.00
9899;BME280;4988;49.238;6.698;2023-02-13T09:07:58;101090.41;;;4.43;100.00
9899;BME280;4988;49.238;6.698;2023-02-13T09:10:24;101082.47;;;4.39;100.00
9899;BME280;4988;49.238;6.698;2023-02-13T09:12:53;101078.19;;;4.48;100.00
9899;BME280;4988;49.238;6.698;2023-02-13T09:15:18;101079.91;;;4.49;100.00
9899;BME280;4988;49.238;6.698;2023-02-13T09:17:43;101077.34;;;4.54;100.00
9899;BME280;4988;49.238;6.698;2023-02-13T09:20:09;101082.72;;;4.63;100.00
9899;BME280;4988;49.238;6.698;2023-02-13T09:22:36;101084.56;;;4.74;100.00
9899;BME280;4988;49.238;6.698;2023-02-13T09:25:02;101089.03;;;4.79;100.00
9899;BME280;4988;49.238;6.698;2023-02-13T09:27:28;101089.94;;;4.86;100.00
9899;BME280;4988;49.238;6.698;2023-02-13T09:29:54;101087.34;;;4.91;100.00
9899;BME280;4988;49.238;6.698;2023-02-13T09:32:20;101080.41;;;4.99;100.00
9899;BME280;4988;49.238;6.698;2023-02-13T09:34:45;101081.31;;;5.04;100.00
9899;BME280;4988;49.238;6.698;2023-02-13T09:37:10;101082.28;;;5.12;100.00
9899;BME280;4988;49.238;6.698;2023-02-13T09:39:36;101086.69;;;5.17;100.00
9899;BME280;4988;49.238;6.698;2023-02-13T09:42:01;101084.97;;;5.23;100.00
9899;BME280;4988;49.238;6.698;2023-02-13T09:44:48;101090.34;;;5.34;100.00
9899;BME280;4988;49.238;6.698;2023-02-13T09:47:41;101087.78;;;5.43;100.00
9899;BME280;4988;49.238;6.698;2023-02-13T09:50:23;101088.72;;;5.53;100.00
9899;BME280;4988;49.238;6.698;2023-02-13T09:52:51;101080.78;;;5.58;100.00
9899;BME280;4988;49.238;6.698;2023-02-13T09:55:22;101080.81;;;5.61;100.00
9899;BME280;4988;49.238;6.698;2023-02-13T09:57:57;101088.78;;;5.67;100.00
9899;BME280;4988;49.238;6.698;2023-02-13T10:00:42;101089.72;;;5.78;100.00
9899;BME280;4988;49.238;6.698;2023-02-13T10:03:32;101090.69;;;5.91;100.00
9899;BME280;4988;49.238;6.698;2023-02-13T10:06:18;101096.84;;;5.93;100.00
9899;BME280;4988;49.238;6.698;2023-02-13T10:09:12;101092.53;;;6.06;100.00
9899;BME280;4988;49.238;6.698;2023-02-13T10:12:04;101094.31;;;6.12;100.00
9899;BME280;4988;49.238;6.698;2023-02-13T10:17:25;101096.16;;;6.27;99.18
9899;BME280;4988;49.238;6.698;2023-02-13T10:19:57;101093.50;;;6.33;99.05
9899;BME280;4988;49.238;6.698;2023-02-13T10:22:58;101091.75;;;6.41;97.42
9899;BME280;4988;49.238;6.698;2023-02-13T10:25:26;101091.78;;;6.48;97.55
9899;BME280;4988;49.238;6.698;2023-02-13T10:28:08;101090.91;;;6.53;96.83
9899;BME280;4988;49.238;6.698;2023-02-13T10:30:46;101093.56;;;6.61;96.62
9899;BME280;4988;49.238;6.698;2023-02-13T10:33:16;101089.19;;;6.62;96.26
9899;BME280;4988;49.238;6.698;2023-02-13T10:38:15;101089.19;;;6.85;96.50
9899;BME280;4988;49.238;6.698;2023-02-13T10:41:03;101083.88;;;6.91;94.58
9899;BME280;4988;49.238;6.698;2023-02-13T10:44:22;101090.06;;;6.99;94.22
9899;BME280;4988;49.238;6.698;2023-02-13T10:49:10;101095.38;;;7.15;94.02
9899;BME280;4988;49.238;6.698;2023-02-13T10:54:30;101090.06;;;7.24;91.93
9899;BME280;4988;49.238;6.698;2023-02-13T10:57:21;101084.78;;;7.27;91.69
9899;BME280;4988;49.238;6.698;2023-02-13T11:00:14;101073.28;;;7.36;91.86
9899;BME280;4988;49.238;6.698;2023-02-13T11:02:41;101075.03;;;7.45;90.70
9899;BME280;4988;49.238;6.698;2023-02-13T11:05:35;101068.88;;;7.44;90.20
9899;BME280;4988;49.238;6.698;2023-02-13T11:08:01;101065.31;;;7.48;90.68
9899;BME280;4988;49.238;6.698;2023-02-13T11:10:27;101059.16;;;7.48;90.58
9899;BME280;4988;49.238;6.698;2023-02-13T11:12:53;101059.97;;;7.62;90.14
9899;BME280;4988;49.238;6.698;2023-02-13T11:15:28;101060.84;;;7.64;89.48
9899;BME280;4988;49.238;6.698;2023-02-13T11:17:56;101052.00;;;7.73;90.09
9899;BME280;4988;49.238;6.698;2023-02-13T11:20:32;101050.22;;;7.77;89.84
9899;BME280;4988;49.238;6.698;2023-02-13T11:23:33;101053.69;;;7.93;88.09
9899;BME280;4988;49.238;6.698;2023-02-13T11:26:02;101047.44;;;8.01;88.20
9899;BME280;4988;49.238;6.698;2023-02-13T11:28:30;101045.63;;;8.13;89.44
9899;BME280;4988;49.238;6.698;2023-02-13T11:31:22;101049.09;;;8.27;87.24
9899;BME280;4988;49.238;6.698;2023-02-13T11:33:50;101049.09;;;8.30;86.80
9899;BME280;4988;49.238;6.698;2023-02-13T11:36:26;101042.84;;;8.36;86.17
9899;BME280;4988;49.238;6.698;2023-02-13T11:41:24;101049.00;;;8.49;84.66
9899;BME280;4988;49.238;6.698;2023-02-13T11:44:00;101047.19;;;8.56;84.17
9899;BME280;4988;49.238;6.698;2023-02-13T11:46:28;101055.13;;;8.59;84.13
9899;BME280;4988;49.238;6.698;2023-02-13T11:51:42;101047.94;;;8.75;82.39
9899;BME280;4988;49.238;6.698;2023-02-13T11:54:27;101040.81;;;8.80;82.01
9899;BME280;4988;49.238;6.698;2023-02-13T11:56:56;101051.41;;;8.81;82.54
9899;BME280;4988;49.238;6.698;2023-02-13T11:59:25;101044.28;;;8.88;80.98
9899;BME280;4988;49.238;6.698;2023-02-13T12:02:21;101047.75;;;8.95;81.13
9899;BME280;4988;49.238;6.698;2023-02-13T12:04:50;101036.25;;;8.96;81.12
9899;BME280;4988;49.238;6.698;2023-02-13T12:07:20;101039.75;;;8.99;80.75
9899;BME280;4988;49.238;6.698;2023-02-13T12:09:49;101047.69;;;9.02;80.04
9899;BME280;4988;49.238;6.698;2023-02-13T12:12:21;101037.91;;;9.08;79.10
9899;BME280;4988;49.238;6.698;2023-02-13T12:14:48;101042.38;;;9.06;79.52
9899;BME280;4988;49.238;6.698;2023-02-13T12:17:25;101030.78;;;9.13;79.06
9899;BME280;4988;49.238;6.698;2023-02-13T12:19:52;101029.78;;;9.25;79.42
9899;BME280;4988;49.238;6.698;2023-02-13T12:25:33;101027.78;;;9.45;79.21
9899;BME280;4988;49.238;6.698;2023-02-13T12:28:12;101022.44;;;9.50;78.54
9899;BME280;4988;49.238;6.698;2023-02-13T12:36:57;101010.78;;;9.60;77.25
9899;BME280;4988;49.238;6.698;2023-02-13T12:39:33;101015.13;;;9.68;76.92
9899;BME280;4988;49.238;6.698;2023-02-13T12:42:28;101007.06;;;9.74;76.70
9899;BME280;4988;49.238;6.698;2023-02-13T12:45:36;101007.88;;;9.80;75.36
9899;BME280;4988;49.238;6.698;2023-02-13T12:50:45;101002.41;;;9.93;75.94
9899;BME280;4988;49.238;6.698;2023-02-13T12:53:26;101001.50;;;9.95;74.48
9899;BME280;4988;49.238;6.698;2023-02-13T12:56:12;100999.75;;;9.93;74.60
9899;BME280;4988;49.238;6.698;2023-02-13T13:04:58;100983.72;;;9.97;73.45
9899;BME280;4988;49.238;6.698;2023-02-13T13:16:22;100974.59;;;10.16;72.15
9899;BME280;4988;49.238;6.698;2023-02-13T13:21:34;100966.63;;;10.16;72.81
9899;BME280;4988;49.238;6.698;2023-02-13T13:26:44;100962.94;;;10.24;72.82
9899;BME280;4988;49.238;6.698;2023-02-13T13:29:16;100951.31;;;10.28;72.96
9899;BME280;4988;49.238;6.698;2023-02-13T13:31:51;100956.56;;;10.33;73.21
9899;BME280;4988;49.238;6.698;2023-02-13T13:34:22;100955.59;;;10.42;71.61
9899;BME280;4988;49.238;6.698;2023-02-13T13:42:06;100958.03;;;10.54;69.15
9899;BME280;4988;49.238;6.698;2023-02-13T13:50:00;100943.69;;;10.65;68.27
9899;BME280;4988;49.238;6.698;2023-02-13T13:52:32;100947.22;;;10.65;68.31
9899;BME280;4988;49.238;6.698;2023-02-13T13:54:59;100942.78;;;10.64;69.52
9899;BME280;4988;49.238;6.698;2023-02-13T13:57:58;100938.34;;;10.65;70.77
9899;BME280;4988;49.238;6.698;2023-02-13T14:00:28;100934.69;;;10.72;70.61
9899;BME280;4988;49.238;6.698;2023-02-13T14:06:04;100940.84;;;10.75;67.81
9899;BME280;4988;49.238;6.698;2023-02-13T14:11:34;100934.59;;;10.76;66.79
9899;BME280;4988;49.238;6.698;2023-02-13T14:15:03;100934.56;;;10.78;67.77
9899;BME280;4988;49.238;6.698;2023-02-13T14:17:13;100930.97;;;10.81;67.00
9899;BME280;4988;49.238;6.698;2023-02-13T14:19:44;100934.47;;;10.84;67.61
9899;BME280;4988;49.238;6.698;2023-02-13T14:25:03;100936.16;;;10.88;67.30
9899;BME280;4988;49.238;6.698;2023-02-13T14:27:34;100941.38;;;10.94;66.91
9899;BME280;4988;49.238;6.698;2023-02-13T14:30:04;100941.44;;;10.91;66.77
9899;BME280;4988;49.238;6.698;2023-02-13T14:32:32;100942.31;;;10.92;66.94
9899;BME280;4988;49.238;6.698;2023-02-13T14:35:01;100935.28;;;10.88;66.83
9899;BME280;4988;49.238;6.698;2023-02-13T14:37:34;100933.44;;;10.91;66.07
9899;BME280;4988;49.238;6.698;2023-02-13T14:42:47;100936.88;;;10.98;66.51
9899;BME280;4988;49.238;6.698;2023-02-13T14:45:23;100935.97;;;10.99;67.13
9899;BME280;4988;49.238;6.698;2023-02-13T14:47:53;100937.66;;;11.03;66.71
9899;BME280;4988;49.238;6.698;2023-02-13T14:50:40;100931.38;;;11.06;66.80
9899;BME280;4988;49.238;6.698;2023-02-13T14:53:17;100935.94;;;11.01;66.35
9899;BME280;4988;49.238;6.698;2023-02-13T14:55:47;100934.16;;;11.00;66.08
9899;BME280;4988;49.238;6.698;2023-02-13T14:58:32;100927.94;;;11.01;65.91
9899;BME280;4988;49.238;6.698;2023-02-13T15:01:04;100921.63;;;11.05;66.17
9899;BME280;4988;49.238;6.698;2023-02-13T15:03:39;100927.88;;;11.04;66.39
9899;BME280;4988;49.238;6.698;2023-02-13T15:06:15;100921.69;;;11.02;66.43
9899;BME280;4988;49.238;6.698;2023-02-13T15:08:49;100930.47;;;11.07;65.72
9899;BME280;4988;49.238;6.698;2023-02-13T15:11:35;100925.28;;;11.01;66.05
9899;BME280;4988;49.238;6.698;2023-02-13T15:16:49;100922.63;;;10.99;65.98
9899;BME280;4988;49.238;6.698;2023-02-13T15:19:17;100919.16;;;10.96;66.44
9899;BME280;4988;49.238;6.698;2023-02-13T15:21:50;100929.03;;;10.90;67.31
9899;BME280;4988;49.238;6.698;2023-02-13T15:24:16;100926.41;;;10.87;67.58
9899;BME280;4988;49.238;6.698;2023-02-13T15:26:42;100926.38;;;10.89;67.44